sensor_id;sensor_type;location;lat;lon;timestamp;P1;durP1;ratioP1;P2;durP2;ratioP2
10343;SDS011;5217;43.960;10.954;2023-02-15T00:00:15;15.13;;;13.63;;
10343;SDS011;5217;43.960;10.954;2023-02-15T00:02:45;15.17;;;13.70;;
10343;SDS011;5217;43.960;10.954;2023-02-15T00:05:14;15.23;;;13.83;;
10343;SDS011;5217;43.960;10.954;2023-02-15T00:07:43;15.57;;;14.07;;
10343;SDS011;5217;43.960;10.954;2023-02-15T00:10:13;14.93;;;13.63;;
10343;SDS011;5217;43.960;10.954;2023-02-15T00:12:43;14.97;;;13.50;;
10343;SDS011;5217;43.960;10.954;2023-02-15T00:15:12;15.07;;;13.50;;
10343;SDS011;5217;43.960;10.954;2023-02-15T00:17:41;14.10;;;12.80;;
10343;SDS011;5217;43.960;10.954;2023-02-15T00:20:09;15.03;;;13.53;;
10343;SDS011;5217;43.960;10.954;2023-02-15T00:22:39;14.27;;;12.97;;
10343;SDS011;5217;43.960;10.954;2023-02-15T00:25:08;13.70;;;12.50;;
10343;SDS011;5217;43.960;10.954;2023-02-15T00:27:36;15.37;;;13.90;;
10343;SDS011;5217;43.960;10.954;2023-02-15T00:30:06;14.57;;;13.20;;
10343;SDS011;5217;43.960;10.954;2023-02-15T00:32:35;15.10;;;13.70;;
10343;SDS011;5217;43.960;10.954;2023-02-15T00:35:03;14.33;;;13.03;;
10343;SDS011;5217;43.960;10.954;2023-02-15T00:37:33;15.40;;;13.90;;
10343;SDS011;5217;43.960;10.954;2023-02-15T00:40:03;13.87;;;12.67;;
10343;SDS011;5217;43.960;10.954;2023-02-15T00:42:32;14.17;;;12.87;;
10343;SDS011;5217;43.960;10.954;2023-02-15T00:45:01;14.23;;;12.90;;
10343;SDS011;5217;43.960;10.954;2023-02-15T00:47:29;14.00;;;12.70;;
10343;SDS011;5217;43.960;10.954;2023-02-15T00:49:58;14.53;;;13.13;;
10343;SDS011;5217;43.960;10.954;2023-02-15T00:52:26;14.10;;;12.83;;
10343;SDS011;5217;43.960;10.954;2023-02-15T00:54:54;15.43;;;14.03;;
10343;SDS011;5217;43.960;10.954;2023-02-15T00:57:24;15.27;;;13.87;;
10343;SDS011;5217;43.960;10.954;2023-02-15T00:59:52;15.50;;;14.03;;
10343;SDS011;5217;43.960;10.954;2023-02-15T01:02:20;15.57;;;14.07;;
10343;SDS011;5217;43.960;10.954;2023-02-15T01:04:49;15.43;;;13.93;;
10343;SDS011;5217;43.960;10.954;2023-02-15T01:07:17;14.70;;;13.40;;
10343;SDS011;5217;43.960;10.954;2023-02-15T01:09:45;15.63;;;14.23;;
10343;SDS011;5217;43.960;10.954;2023-02-15T01:12:14;15.87;;;14.27;;
10343;SDS011;5217;43.960;10.954;2023-02-15T01:14:44;15.67;;;14.17;;
10343;SDS011;5217;43.960;10.954;2023-02-15T01:17:12;14.97;;;13.47;;
10343;SDS011;5217;43.960;10.954;2023-02-15T01:19:40;14.93;;;13.50;;
10343;SDS011;5217;43.960;10.954;2023-02-15T01:22:09;14.93;;;13.53;;
10343;SDS011;5217;43.960;10.954;2023-02-15T01:24:37;15.00;;;13.50;;
10343;SDS011;5217;43.960;10.954;2023-02-15T01:27:06;14.60;;;13.20;;
10343;SDS011;5217;43.960;10.954;2023-02-15T01:29:34;15.93;;;14.33;;
10343;SDS011;5217;43.960;10.954;2023-02-15T01:32:04;15.07;;;13.67;;
10343;SDS011;5217;43.960;10.954;2023-02-15T01:34:33;14.43;;;13.13;;
10343;SDS011;5217;43.960;10.954;2023-02-15T01:37:01;14.90;;;13.50;;
10343;SDS011;5217;43.960;10.954;2023-02-15T01:39:29;15.13;;;13.73;;
10343;SDS011;5217;43.960;10.954;2023-02-15T01:41:58;15.53;;;14.13;;
10343;SDS011;5217;43.960;10.954;2023-02-15T01:44:47;14.93;;;13.53;;
10343;SDS011;5217;43.960;10.954;2023-02-15T01:47:21;15.20;;;13.80;;
10343;SDS011;5217;43.960;10.954;2023-02-15T01:49:59;15.23;;;13.83;;
10343;SDS011;5217;43.960;10.954;2023-02-15T01:52:31;15.87;;;14.37;;
10343;SDS011;5217;43.960;10.954;2023-02-15T01:55:02;14.60;;;13.30;;
10343;SDS011;5217;43.960;10.954;2023-02-15T01:57:33;14.20;;;12.77;;
10343;SDS011;5217;43.960;10.954;2023-02-15T02:00:03;14.83;;;13.43;;
10343;SDS011;5217;43.960;10.954;2023-02-15T02:02:35;14.90;;;13.50;;
10343;SDS011;5217;43.960;10.954;2023-02-15T02:05:05;14.87;;;13.50;;
10343;SDS011;5217;43.960;10.954;2023-02-15T02:07:36;14.03;;;12.70;;
10343;SDS011;5217;43.960;10.954;2023-02-15T02:10:07;14.50;;;13.13;;
10343;SDS011;5217;43.960;10.954;2023-02-15T02:12:37;13.43;;;12.23;;
10343;SDS011;5217;43.960;10.954;2023-02-15T02:15:08;13.87;;;12.67;;
10343;SDS011;5217;43.960;10.954;2023-02-15T02:17:40;14.80;;;13.37;;
10343;SDS011;5217;43.960;10.954;2023-02-15T02:20:24;14.93;;;13.37;;
10343;SDS011;5217;43.960;10.954;2023-02-15T02:29:07;15.63;;;14.13;;
10343;SDS011;5217;43.960;10.954;2023-02-15T02:32:18;14.53;;;13.23;;
10343;SDS011;5217;43.960;10.954;2023-02-15T02:35:25;15.00;;;13.60;;
10343;SDS011;5217;43.960;10.954;2023-02-15T02:38:00;16.03;;;14.63;;
10343;SDS011;5217;43.960;10.954;2023-02-15T02:40:36;15.30;;;13.80;;
10343;SDS011;5217;43.960;10.954;2023-02-15T02:43:11;14.63;;;13.17;;
10343;SDS011;5217;43.960;10.954;2023-02-15T02:45:46;14.37;;;12.97;;
10343;SDS011;5217;43.960;10.954;2023-02-15T02:48:20;14.33;;;13.03;;
10343;SDS011;5217;43.960;10.954;2023-02-15T02:50:53;15.03;;;13.63;;
10343;SDS011;5217;43.960;10.954;2023-02-15T02:53:21;14.93;;;13.53;;
10343;SDS011;5217;43.960;10.954;2023-02-15T02:55:50;14.97;;;13.57;;
10343;SDS011;5217;43.960;10.954;2023-02-15T02:58:23;15.93;;;14.37;;
10343;SDS011;5217;43.960;10.954;2023-02-15T03:00:57;14.93;;;13.57;;
10343;SDS011;5217;43.960;10.954;2023-02-15T03:03:33;15.00;;;13.50;;
10343;SDS011;5217;43.960;10.954;2023-02-15T03:06:06;15.07;;;13.67;;
10343;SDS011;5217;43.960;10.954;2023-02-15T03:08:40;14.90;;;13.50;;
10343;SDS011;5217;43.960;10.954;2023-02-15T03:11:11;15.53;;;14.13;;
10343;SDS011;5217;43.960;10.954;2023-02-15T03:13:40;16.13;;;14.63;;
10343;SDS011;5217;43.960;10.954;2023-02-15T03:16:09;14.73;;;13.37;;
10343;SDS011;5217;43.960;10.954;2023-02-15T03:18:55;15.53;;;14.03;;
10343;SDS011;5217;43.960;10.954;2023-02-15T03:21:32;15.53;;;13.90;;
10343;SDS011;5217;43.960;10.954;2023-02-15T03:24:06;16.23;;;14.63;;
10343;SDS011;5217;43.960;10.954;2023-02-15T03:26:37;15.90;;;14.40;;
10343;SDS011;5217;43.960;10.954;2023-02-15T03:29:09;16.87;;;15.27;;
10343;SDS011;5217;43.960;10.954;2023-02-15T03:31:40;15.63;;;14.23;;
10343;SDS011;5217;43.960;10.954;2023-02-15T03:34:12;15.13;;;13.73;;
10343;SDS011;5217;43.960;10.954;2023-02-15T03:36:45;15.70;;;14.20;;
10343;SDS011;5217;43.960;10.954;2023-02-15T03:39:20;15.50;;;14.00;;
10343;SDS011;5217;43.960;10.954;2023-02-15T03:41:55;14.47;;;13.13;;
10343;SDS011;5217;43.960;10.954;2023-02-15T03:44:27;14.60;;;13.30;;
10343;SDS011;5217;43.960;10.954;2023-02-15T03:46:59;14.73;;;13.27;;
10343;SDS011;5217;43.960;10.954;2023-02-15T03:49:34;15.60;;;13.93;;
10343;SDS011;5217;43.960;10.954;2023-02-15T03:52:10;15.13;;;13.67;;
10343;SDS011;5217;43.960;10.954;2023-02-15T03:54:41;15.47;;;13.97;;
10343;SDS011;5217;43.960;10.954;2023-02-15T03:57:13;14.87;;;13.47;;
10343;SDS011;5217;43.960;10.954;2023-02-15T04:00:09;14.57;;;13.17;;
10343;SDS011;5217;43.960;10.954;2023-02-15T04:03:05;14.47;;;13.07;;
10343;SDS011;5217;43.960;10.954;2023-02-15T04:05:37;14.37;;;12.87;;
10343;SDS011;5217;43.960;10.954;2023-02-15T04:08:07;14.23;;;12.93;;
10343;SDS011;5217;43.960;10.954;2023-02-15T04:10:36;15.00;;;13.60;;
10343;SDS011;5217;43.960;10.954;2023-02-15T04:13:19;16.50;;;14.90;;
10343;SDS011;5217;43.960;10.954;2023-02-15T04:15:48;15.87;;;14.30;;
10343;SDS011;5217;43.960;10.954;2023-02-15T04:18:32;15.90;;;14.50;;
10343;SDS011;5217;43.960;10.954;2023-02-15T04:21:18;16.30;;;14.73;;
10343;SDS011;5217;43.960;10.954;2023-02-15T04:24:06;16.53;;;14.93;;
10343;SDS011;5217;43.960;10.954;2023-02-15T04:26:52;15.03;;;13.63;;
10343;SDS011;5217;43.960;10.954;2023-02-15T04:29:21;16.43;;;14.90;;
10343;SDS011;5217;43.960;10.954;2023-02-15T04:31:51;15.03;;;13.63;;
10343;SDS011;5217;43.960;10.954;2023-02-15T04:34:20;15.70;;;14.13;;
10343;SDS011;5217;43.960;10.954;2023-02-15T04:36:49;15.63;;;14.23;;
10343;SDS011;5217;43.960;10.954;2023-02-15T04:39:18;15.20;;;13.70;;
10343;SDS011;5217;43.960;10.954;2023-02-15T04:41:47;15.17;;;13.77;;
10343;SDS011;5217;43.960;10.954;2023-02-15T04:44:15;15.07;;;13.67;;
10343;SDS011;5217;43.960;10.954;2023-02-15T04:46:44;14.97;;;13.53;;
10343;SDS011;5217;43.960;10.954;2023-02-15T04:49:12;14.17;;;12.87;;
10343;SDS011;5217;43.960;10.954;2023-02-15T04:51:40;15.43;;;13.77;;
10343;SDS011;5217;43.960;10.954;2023-02-15T04:54:08;15.90;;;14.40;;
10343;SDS011;5217;43.960;10.954;2023-02-15T04:56:39;15.80;;;14.30;;
10343;SDS011;5217;43.960;10.954;2023-02-15T04:59:09;15.97;;;14.37;;
10343;SDS011;5217;43.960;10.954;2023-02-15T05:01:38;16.17;;;14.57;;
10343;SDS011;5217;43.960;10.954;2023-02-15T05:04:06;16.27;;;14.67;;
10343;SDS011;5217;43.960;10.954;2023-02-15T05:06:35;15.17;;;13.77;;
10343;SDS011;5217;43.960;10.954;2023-02-15T05:09:04;14.83;;;13.43;;
10343;SDS011;5217;43.960;10.954;2023-02-15T05:11:32;15.07;;;13.60;;
10343;SDS011;5217;43.960;10.954;2023-02-15T05:14:02;15.23;;;13.77;;
10343;SDS011;5217;43.960;10.954;2023-02-15T05:16:30;15.17;;;13.70;;
10343;SDS011;5217;43.960;10.954;2023-02-15T05:18:59;15.17;;;13.77;;
10343;SDS011;5217;43.960;10.954;2023-02-15T05:21:27;16.33;;;14.83;;
10343;SDS011;5217;43.960;10.954;2023-02-15T05:23:55;16.50;;;14.90;;
10343;SDS011;5217;43.960;10.954;2023-02-15T05:26:24;16.63;;;15.03;;
10343;SDS011;5217;43.960;10.954;2023-02-15T05:29:11;16.03;;;14.53;;
10343;SDS011;5217;43.960;10.954;2023-02-15T05:31:39;17.63;;;15.83;;
10343;SDS011;5217;43.960;10.954;2023-02-15T05:34:10;17.90;;;16.20;;
10343;SDS011;5217;43.960;10.954;2023-02-15T05:36:39;18.60;;;16.87;;
10343;SDS011;5217;43.960;10.954;2023-02-15T05:39:07;17.50;;;16.00;;
10343;SDS011;5217;43.960;10.954;2023-02-15T05:41:35;17.87;;;16.17;;
10343;SDS011;5217;43.960;10.954;2023-02-15T05:44:04;17.30;;;15.70;;
10343;SDS011;5217;43.960;10.954;2023-02-15T05:46:33;17.13;;;15.43;;
10343;SDS011;5217;43.960;10.954;2023-02-15T05:49:02;19.57;;;17.73;;
10343;SDS011;5217;43.960;10.954;2023-02-15T05:51:30;20.87;;;18.97;;
10343;SDS011;5217;43.960;10.954;2023-02-15T05:53:58;21.43;;;19.43;;
10343;SDS011;5217;43.960;10.954;2023-02-15T05:56:27;20.53;;;18.53;;
10343;SDS011;5217;43.960;10.954;2023-02-15T05:58:55;19.00;;;17.30;;
10343;SDS011;5217;43.960;10.954;2023-02-15T06:01:23;19.77;;;17.77;;
10343;SDS011;5217;43.960;10.954;2023-02-15T06:03:53;17.80;;;16.10;;
10343;SDS011;5217;43.960;10.954;2023-02-15T06:06:22;19.87;;;17.97;;
10343;SDS011;5217;43.960;10.954;2023-02-15T06:08:50;21.13;;;19.10;;
10343;SDS011;5217;43.960;10.954;2023-02-15T06:11:18;20.80;;;18.77;;
10343;SDS011;5217;43.960;10.954;2023-02-15T06:13:46;19.60;;;17.67;;
10343;SDS011;5217;43.960;10.954;2023-02-15T06:16:15;19.47;;;17.57;;
10343;SDS011;5217;43.960;10.954;2023-02-15T06:18:43;18.67;;;16.83;;
10343;SDS011;5217;43.960;10.954;2023-02-15T06:21:13;17.30;;;15.70;;
10343;SDS011;5217;43.960;10.954;2023-02-15T06:23:42;17.20;;;15.60;;
10343;SDS011;5217;43.960;10.954;2023-02-15T06:26:10;17.23;;;15.63;;
10343;SDS011;5217;43.960;10.954;2023-02-15T06:28:38;16.97;;;15.30;;
10343;SDS011;5217;43.960;10.954;2023-02-15T06:31:07;18.07;;;16.20;;
10343;SDS011;5217;43.960;10.954;2023-02-15T06:33:35;16.60;;;15.00;;
10343;SDS011;5217;43.960;10.954;2023-02-15T06:36:04;17.33;;;15.73;;
10343;SDS011;5217;43.960;10.954;2023-02-15T06:38:35;16.93;;;15.33;;
10343;SDS011;5217;43.960;10.954;2023-02-15T06:41:03;17.03;;;15.43;;
10343;SDS011;5217;43.960;10.954;2023-02-15T06:43:31;16.70;;;15.10;;
10343;SDS011;5217;43.960;10.954;2023-02-15T06:46:00;16.60;;;15.10;;
10343;SDS011;5217;43.960;10.954;2023-02-15T06:48:29;17.23;;;15.60;;
10343;SDS011;5217;43.960;10.954;2023-02-15T06:50:57;17.30;;;15.70;;
10343;SDS011;5217;43.960;10.954;2023-02-15T06:53:26;17.37;;;15.77;;
10343;SDS011;5217;43.960;10.954;2023-02-15T06:56:01;21.93;;;19.83;;
10343;SDS011;5217;43.960;10.954;2023-02-15T06:58:32;21.63;;;19.37;;
10343;SDS011;5217;43.960;10.954;2023-02-15T07:01:01;23.03;;;20.63;;
10343;SDS011;5217;43.960;10.954;2023-02-15T07:03:29;20.67;;;18.50;;
10343;SDS011;5217;43.960;10.954;2023-02-15T07:06:00;17.87;;;16.17;;
10343;SDS011;5217;43.960;10.954;2023-02-15T07:08:29;17.30;;;15.63;;
10343;SDS011;5217;43.960;10.954;2023-02-15T07:10:58;16.70;;;15.10;;
10343;SDS011;5217;43.960;10.954;2023-02-15T07:13:48;17.60;;;15.90;;
10343;SDS011;5217;43.960;10.954;2023-02-15T07:16:15;16.23;;;14.73;;
10343;SDS011;5217;43.960;10.954;2023-02-15T07:18:44;16.83;;;15.33;;
10343;SDS011;5217;43.960;10.954;2023-02-15T07:21:12;16.00;;;14.47;;
10343;SDS011;5217;43.960;10.954;2023-02-15T07:23:40;16.80;;;15.20;;
10343;SDS011;5217;43.960;10.954;2023-02-15T07:26:09;16.83;;;15.20;;
10343;SDS011;5217;43.960;10.954;2023-02-15T07:28:37;16.90;;;15.20;;
10343;SDS011;5217;43.960;10.954;2023-02-15T07:31:07;17.03;;;15.43;;
10343;SDS011;5217;43.960;10.954;2023-02-15T07:33:36;17.33;;;15.63;;
10343;SDS011;5217;43.960;10.954;2023-02-15T07:36:04;17.97;;;16.27;;
10343;SDS011;5217;43.960;10.954;2023-02-15T07:38:34;18.63;;;16.93;;
10343;SDS011;5217;43.960;10.954;2023-02-15T07:41:04;17.50;;;15.80;;
10343;SDS011;5217;43.960;10.954;2023-02-15T07:43:35;18.20;;;16.40;;
10343;SDS011;5217;43.960;10.954;2023-02-15T07:46:07;17.17;;;15.47;;
10343;SDS011;5217;43.960;10.954;2023-02-15T07:48:38;18.07;;;16.37;;
10343;SDS011;5217;43.960;10.954;2023-02-15T07:51:09;18.07;;;16.30;;
10343;SDS011;5217;43.960;10.954;2023-02-15T07:53:38;23.53;;;21.13;;
10343;SDS011;5217;43.960;10.954;2023-02-15T07:56:07;26.53;;;23.77;;
10343;SDS011;5217;43.960;10.954;2023-02-15T07:58:37;28.87;;;25.97;;
10343;SDS011;5217;43.960;10.954;2023-02-15T08:01:21;29.17;;;26.27;;
10343;SDS011;5217;43.960;10.954;2023-02-15T08:03:50;34.63;;;30.63;;
10343;SDS011;5217;43.960;10.954;2023-02-15T08:06:19;34.63;;;31.00;;
10343;SDS011;5217;43.960;10.954;2023-02-15T08:08:48;35.37;;;31.83;;
10343;SDS011;5217;43.960;10.954;2023-02-15T08:11:17;36.20;;;32.50;;
10343;SDS011;5217;43.960;10.954;2023-02-15T08:13:55;38.47;;;34.43;;
10343;SDS011;5217;43.960;10.954;2023-02-15T08:16:28;38.93;;;35.13;;
10343;SDS011;5217;43.960;10.954;2023-02-15T08:18:59;38.83;;;34.93;;
10343;SDS011;5217;43.960;10.954;2023-02-15T08:21:29;39.57;;;35.70;;
10343;SDS011;5217;43.960;10.954;2023-02-15T08:23:59;40.67;;;36.60;;
10343;SDS011;5217;43.960;10.954;2023-02-15T08:26:27;41.03;;;36.73;;
10343;SDS011;5217;43.960;10.954;2023-02-15T08:28:57;40.83;;;36.73;;
10343;SDS011;5217;43.960;10.954;2023-02-15T08:31:27;41.20;;;37.07;;
10343;SDS011;5217;43.960;10.954;2023-02-15T08:33:56;39.87;;;35.90;;
10343;SDS011;5217;43.960;10.954;2023-02-15T08:36:26;38.37;;;34.67;;
10343;SDS011;5217;43.960;10.954;2023-02-15T08:38:57;40.47;;;36.43;;
10343;SDS011;5217;43.960;10.954;2023-02-15T08:41:27;42.17;;;37.87;;
10343;SDS011;5217;43.960;10.954;2023-02-15T08:43:58;41.97;;;37.77;;
10343;SDS011;5217;43.960;10.954;2023-02-15T08:46:29;44.43;;;40.03;;
10343;SDS011;5217;43.960;10.954;2023-02-15T08:49:00;41.60;;;37.30;;
10343;SDS011;5217;43.960;10.954;2023-02-15T08:51:29;41.17;;;37.13;;
10343;SDS011;5217;43.960;10.954;2023-02-15T08:53:59;45.87;;;41.37;;
10343;SDS011;5217;43.960;10.954;2023-02-15T08:56:30;42.83;;;38.83;;
10343;SDS011;5217;43.960;10.954;2023-02-15T08:59:01;45.37;;;40.87;;
10343;SDS011;5217;43.960;10.954;2023-02-15T09:01:31;43.03;;;38.93;;
10343;SDS011;5217;43.960;10.954;2023-02-15T09:04:03;44.10;;;39.70;;
10343;SDS011;5217;43.960;10.954;2023-02-15T09:06:35;44.97;;;40.70;;
10343;SDS011;5217;43.960;10.954;2023-02-15T09:09:03;44.00;;;39.80;;
10343;SDS011;5217;43.960;10.954;2023-02-15T09:11:33;45.67;;;41.27;;
10343;SDS011;5217;43.960;10.954;2023-02-15T09:14:04;44.33;;;40.03;;
10343;SDS011;5217;43.960;10.954;2023-02-15T09:16:36;45.50;;;41.20;;
10343;SDS011;5217;43.960;10.954;2023-02-15T09:19:05;44.77;;;40.57;;
10343;SDS011;5217;43.960;10.954;2023-02-15T09:21:35;44.53;;;40.17;;
10343;SDS011;5217;43.960;10.954;2023-02-15T09:24:05;42.83;;;38.77;;
10343;SDS011;5217;43.960;10.954;2023-02-15T09:26:35;42.27;;;38.30;;
10343;SDS011;5217;43.960;10.954;2023-02-15T09:29:05;44.77;;;40.57;;
10343;SDS011;5217;43.960;10.954;2023-02-15T09:31:37;43.80;;;39.67;;
10343;SDS011;5217;43.960;10.954;2023-02-15T09:34:07;42.43;;;38.50;;
10343;SDS011;5217;43.960;10.954;2023-02-15T09:36:36;45.90;;;41.60;;
10343;SDS011;5217;43.960;10.954;2023-02-15T09:39:07;49.10;;;44.27;;
10343;SDS011;5217;43.960;10.954;2023-02-15T09:41:44;47.50;;;42.90;;
10343;SDS011;5217;43.960;10.954;2023-02-15T09:44:33;54.53;;;48.97;;
10343;SDS011;5217;43.960;10.954;2023-02-15T09:47:22;52.20;;;47.07;;
10343;SDS011;5217;43.960;10.954;2023-02-15T09:50:11;57.40;;;51.50;;
10343;SDS011;5217;43.960;10.954;2023-02-15T09:52:46;55.57;;;49.97;;
10343;SDS011;5217;43.960;10.954;2023-02-15T09:55:28;58.77;;;52.67;;
10343;SDS011;5217;43.960;10.954;2023-02-15T09:58:08;56.80;;;51.20;;
10343;SDS011;5217;43.960;10.954;2023-02-15T10:00:47;53.33;;;47.93;;
10343;SDS011;5217;43.960;10.954;2023-02-15T10:03:27;52.37;;;47.07;;
10343;SDS011;5217;43.960;10.954;2023-02-15T10:06:13;51.03;;;45.83;;
10343;SDS011;5217;43.960;10.954;2023-02-15T10:08:58;54.23;;;48.40;;
10343;SDS011;5217;43.960;10.954;2023-02-15T10:11:48;51.50;;;46.40;;
10343;SDS011;5217;43.960;10.954;2023-02-15T10:14:37;50.23;;;45.27;;
10343;SDS011;5217;43.960;10.954;2023-02-15T10:17:40;50.83;;;45.73;;
10343;SDS011;5217;43.960;10.954;2023-02-15T10:20:20;51.93;;;46.93;;
10343;SDS011;5217;43.960;10.954;2023-02-15T10:23:03;52.80;;;47.43;;
10343;SDS011;5217;43.960;10.954;2023-02-15T10:25:42;52.80;;;47.60;;
10343;SDS011;5217;43.960;10.954;2023-02-15T10:28:15;54.27;;;48.97;;
10343;SDS011;5217;43.960;10.954;2023-02-15T10:30:46;57.43;;;51.53;;
10343;SDS011;5217;43.960;10.954;2023-02-15T10:33:30;59.73;;;53.73;;
10343;SDS011;5217;43.960;10.954;2023-02-15T10:36:19;58.77;;;52.87;;
10343;SDS011;5217;43.960;10.954;2023-02-15T10:39:01;60.57;;;54.13;;
10343;SDS011;5217;43.960;10.954;2023-02-15T10:41:35;62.90;;;56.47;;
10343;SDS011;5217;43.960;10.954;2023-02-15T10:44:28;62.90;;;56.47;;
10343;SDS011;5217;43.960;10.954;2023-02-15T10:47:23;63.93;;;57.43;;
10343;SDS011;5217;43.960;10.954;2023-02-15T10:50:13;59.70;;;53.67;;
10343;SDS011;5217;43.960;10.954;2023-02-15T10:53:08;56.53;;;50.83;;
10343;SDS011;5217;43.960;10.954;2023-02-15T10:56:01;55.40;;;49.70;;
10343;SDS011;5217;43.960;10.954;2023-02-15T10:58:42;59.97;;;54.07;;
10343;SDS011;5217;43.960;10.954;2023-02-15T11:01:24;56.63;;;50.87;;
10343;SDS011;5217;43.960;10.954;2023-02-15T11:04:05;55.13;;;49.90;;
10343;SDS011;5217;43.960;10.954;2023-02-15T11:06:49;60.53;;;54.70;;
10343;SDS011;5217;43.960;10.954;2023-02-15T11:09:22;61.77;;;55.63;;
10343;SDS011;5217;43.960;10.954;2023-02-15T11:11:55;55.27;;;49.87;;
10343;SDS011;5217;43.960;10.954;2023-02-15T11:14:30;58.20;;;52.43;;
10343;SDS011;5217;43.960;10.954;2023-02-15T11:17:04;53.53;;;48.27;;
10343;SDS011;5217;43.960;10.954;2023-02-15T11:19:38;54.97;;;49.37;;
10343;SDS011;5217;43.960;10.954;2023-02-15T11:22:13;52.70;;;47.70;;
10343;SDS011;5217;43.960;10.954;2023-02-15T11:24:44;56.43;;;50.57;;
10343;SDS011;5217;43.960;10.954;2023-02-15T11:27:19;53.67;;;48.10;;
10343;SDS011;5217;43.960;10.954;2023-02-15T11:29:53;50.80;;;45.93;;
10343;SDS011;5217;43.960;10.954;2023-02-15T11:32:28;52.63;;;47.30;;
10343;SDS011;5217;43.960;10.954;2023-02-15T11:35:00;53.47;;;48.27;;
10343;SDS011;5217;43.960;10.954;2023-02-15T11:37:34;55.97;;;50.43;;
10343;SDS011;5217;43.960;10.954;2023-02-15T11:40:14;53.03;;;47.83;;
10343;SDS011;5217;43.960;10.954;2023-02-15T11:42:48;50.37;;;45.57;;
10343;SDS011;5217;43.960;10.954;2023-02-15T11:45:24;50.20;;;45.50;;
10343;SDS011;5217;43.960;10.954;2023-02-15T11:47:55;48.17;;;43.40;;
10343;SDS011;5217;43.960;10.954;2023-02-15T11:50:25;48.42;;;43.72;;
10343;SDS011;5217;43.960;10.954;2023-02-15T11:52:56;47.00;;;41.97;;
10343;SDS011;5217;43.960;10.954;2023-02-15T11:55:29;44.80;;;40.03;;
10343;SDS011;5217;43.960;10.954;2023-02-15T11:58:02;42.92;;;38.33;;
10343;SDS011;5217;43.960;10.954;2023-02-15T12:00:36;39.65;;;35.45;;
10343;SDS011;5217;43.960;10.954;2023-02-15T12:03:11;39.30;;;35.28;;
10343;SDS011;5217;43.960;10.954;2023-02-15T12:05:44;37.67;;;33.67;;
10343;SDS011;5217;43.960;10.954;2023-02-15T12:08:16;36.38;;;32.38;;
10343;SDS011;5217;43.960;10.954;2023-02-15T12:10:53;39.05;;;34.67;;
10343;SDS011;5217;43.960;10.954;2023-02-15T12:13:26;37.53;;;33.67;;
10343;SDS011;5217;43.960;10.954;2023-02-15T12:15:56;39.20;;;35.08;;
10343;SDS011;5217;43.960;10.954;2023-02-15T12:18:36;43.83;;;39.35;;
10343;SDS011;5217;43.960;10.954;2023-02-15T12:21:07;40.38;;;36.17;;
10343;SDS011;5217;43.960;10.954;2023-02-15T12:23:41;40.70;;;36.30;;
10343;SDS011;5217;43.960;10.954;2023-02-15T12:26:15;37.53;;;33.63;;
10343;SDS011;5217;43.960;10.954;2023-02-15T12:28:52;38.28;;;34.03;;
10343;SDS011;5217;43.960;10.954;2023-02-15T12:31:25;38.00;;;34.03;;
10343;SDS011;5217;43.960;10.954;2023-02-15T12:33:56;40.55;;;36.28;;
10343;SDS011;5217;43.960;10.954;2023-02-15T12:36:29;36.78;;;32.95;;
10343;SDS011;5217;43.960;10.954;2023-02-15T12:39:17;35.47;;;31.60;;
10343;SDS011;5217;43.960;10.954;2023-02-15T12:42:01;36.30;;;32.45;;
10343;SDS011;5217;43.960;10.954;2023-02-15T12:44:32;33.80;;;30.40;;
10343;SDS011;5217;43.960;10.954;2023-02-15T12:47:02;36.53;;;32.65;;
10343;SDS011;5217;43.960;10.954;2023-02-15T12:49:32;39.85;;;35.58;;
10343;SDS011;5217;43.960;10.954;2023-02-15T12:52:02;36.50;;;32.78;;
10343;SDS011;5217;43.960;10.954;2023-02-15T12:54:34;36.38;;;32.47;;
10343;SDS011;5217;43.960;10.954;2023-02-15T12:57:20;38.03;;;31.92;;
10343;SDS011;5217;43.960;10.954;2023-02-15T12:59:53;31.58;;;28.27;;
10343;SDS011;5217;43.960;10.954;2023-02-15T13:02:25;28.10;;;25.27;;
10343;SDS011;5217;43.960;10.954;2023-02-15T13:04:56;32.90;;;28.67;;
10343;SDS011;5217;43.960;10.954;2023-02-15T13:07:31;27.58;;;24.77;;
10343;SDS011;5217;43.960;10.954;2023-02-15T13:10:00;28.17;;;25.00;;
10343;SDS011;5217;43.960;10.954;2023-02-15T13:12:30;29.45;;;26.15;;
10343;SDS011;5217;43.960;10.954;2023-02-15T13:15:00;24.30;;;21.90;;
10343;SDS011;5217;43.960;10.954;2023-02-15T13:17:31;26.33;;;23.70;;
10343;SDS011;5217;43.960;10.954;2023-02-15T13:20:02;27.95;;;25.08;;
10343;SDS011;5217;43.960;10.954;2023-02-15T13:22:38;25.17;;;22.67;;
10343;SDS011;5217;43.960;10.954;2023-02-15T13:25:11;22.92;;;20.65;;
10343;SDS011;5217;43.960;10.954;2023-02-15T13:27:44;25.10;;;22.67;;
10343;SDS011;5217;43.960;10.954;2023-02-15T13:30:23;26.13;;;23.55;;
10343;SDS011;5217;43.960;10.954;2023-02-15T13:32:54;26.58;;;23.77;;
10343;SDS011;5217;43.960;10.954;2023-02-15T13:35:25;23.98;;;21.58;;
10343;SDS011;5217;43.960;10.954;2023-02-15T13:38:02;24.90;;;22.45;;
10343;SDS011;5217;43.960;10.954;2023-02-15T13:40:41;23.88;;;21.60;;
10343;SDS011;5217;43.960;10.954;2023-02-15T13:43:21;23.50;;;21.10;;
10343;SDS011;5217;43.960;10.954;2023-02-15T13:46:03;25.08;;;22.50;;
10343;SDS011;5217;43.960;10.954;2023-02-15T13:48:43;22.55;;;20.35;;
10343;SDS011;5217;43.960;10.954;2023-02-15T13:51:21;24.42;;;21.83;;
10343;SDS011;5217;43.960;10.954;2023-02-15T13:53:57;26.05;;;23.30;;
10343;SDS011;5217;43.960;10.954;2023-02-15T13:56:40;23.10;;;20.70;;
10343;SDS011;5217;43.960;10.954;2023-02-15T13:59:22;23.50;;;20.98;;
10343;SDS011;5217;43.960;10.954;2023-02-15T14:02:27;24.30;;;21.65;;
10343;SDS011;5217;43.960;10.954;2023-02-15T14:05:10;23.45;;;20.95;;
10343;SDS011;5217;43.960;10.954;2023-02-15T14:07:55;22.42;;;20.33;;
10343;SDS011;5217;43.960;10.954;2023-02-15T14:10:36;23.88;;;21.48;;
10343;SDS011;5217;43.960;10.954;2023-02-15T14:13:19;23.38;;;21.00;;
10343;SDS011;5217;43.960;10.954;2023-02-15T14:16:19;22.17;;;20.08;;
10343;SDS011;5217;43.960;10.954;2023-02-15T14:19:01;22.17;;;20.08;;
10343;SDS011;5217;43.960;10.954;2023-02-15T14:21:37;21.48;;;19.27;;
10343;SDS011;5217;43.960;10.954;2023-02-15T14:24:14;23.15;;;20.73;;
10343;SDS011;5217;43.960;10.954;2023-02-15T14:26:54;22.83;;;19.65;;
10343;SDS011;5217;43.960;10.954;2023-02-15T14:29:36;22.40;;;20.10;;
10343;SDS011;5217;43.960;10.954;2023-02-15T14:32:16;22.58;;;20.30;;
10343;SDS011;5217;43.960;10.954;2023-02-15T14:34:50;20.05;;;18.05;;
10343;SDS011;5217;43.960;10.954;2023-02-15T14:37:22;21.52;;;19.40;;
10343;SDS011;5217;43.960;10.954;2023-02-15T14:40:00;19.55;;;17.45;;
10343;SDS011;5217;43.960;10.954;2023-02-15T14:42:52;20.75;;;18.75;;
10343;SDS011;5217;43.960;10.954;2023-02-15T14:45:26;19.00;;;17.10;;
10343;SDS011;5217;43.960;10.954;2023-02-15T14:48:03;21.35;;;19.02;;
10343;SDS011;5217;43.960;10.954;2023-02-15T14:50:39;18.98;;;17.08;;
10343;SDS011;5217;43.960;10.954;2023-02-15T14:53:25;18.70;;;16.83;;
10343;SDS011;5217;43.960;10.954;2023-02-15T14:56:14;28.73;;;22.58;;
10343;SDS011;5217;43.960;10.954;2023-02-15T15:01:41;26.13;;;23.13;;
10343;SDS011;5217;43.960;10.954;2023-02-15T15:04:23;22.08;;;19.73;;
10343;SDS011;5217;43.960;10.954;2023-02-15T15:06:59;32.15;;;26.13;;